sensor_id;sensor_type;location;lat;lon;timestamp;pressure;altitude;pressure_sealevel;temperature;humidity
1726;BME280;41776;48.260;8.928;2023-02-22T00:02:06;52440.44;;;-145.69;100.00
1726;BME280;41776;48.260;8.928;2023-02-22T00:04:37;52428.53;;;-145.69;100.00
1726;BME280;41776;48.260;8.928;2023-02-22T00:07:04;52430.53;;;-145.69;100.00
1726;BME280;41776;48.260;8.928;2023-02-22T00:09:31;52424.59;;;-145.69;100.00
1726;BME280;41776;48.260;8.928;2023-02-22T00:11:58;52408.75;;;-145.69;100.00
1726;BME280;41776;48.260;8.928;2023-02-22T00:14:24;52434.47;;;-145.69;100.00
1726;BME280;41776;48.260;8.928;2023-02-22T00:16:51;52416.66;;;-145.69;100.00
1726;BME280;41776;48.260;8.928;2023-02-22T00:19:20;52422.59;;;-145.69;100.00
1726;BME280;41776;48.260;8.928;2023-02-22T00:21:50;52428.53;;;-145.69;100.00
1726;BME280;41776;48.260;8.928;2023-02-22T00:24:17;52426.56;;;-145.69;100.00
1726;BME280;41776;48.260;8.928;2023-02-22T00:26:50;52432.50;;;-145.69;100.00
1726;BME280;41776;48.260;8.928;2023-02-22T00:29:19;52392.91;;;-145.69;100.00
1726;BME280;41776;48.260;8.928;2023-02-22T00:31:47;52384.97;;;-145.69;100.00
1726;BME280;41776;48.260;8.928;2023-02-22T00:34:13;52430.53;;;-145.69;100.00
1726;BME280;41776;48.260;8.928;2023-02-22T00:36:44;52422.59;;;-145.69;100.00
1726;BME280;41776;48.260;8.928;2023-02-22T00:39:10;52418.63;;;-145.69;100.00
1726;BME280;41776;48.260;8.928;2023-02-22T00:41:37;52416.66;;;-145.69;100.00
1726;BME280;41776;48.260;8.928;2023-02-22T00:44:05;52414.69;;;-145.69;100.00
1726;BME280;41776;48.260;8.928;2023-02-22T00:46:31;52432.50;;;-145.69;100.00
1726;BME280;41776;48.260;8.928;2023-02-22T00:48:57;52438.44;;;-145.69;100.00
1726;BME280;41776;48.260;8.928;2023-02-22T00:51:24;52448.34;;;-145.69;100.00
1726;BME280;41776;48.260;8.928;2023-02-22T00:53:51;52420.63;;;-145.69;100.00
1726;BME280;41776;48.260;8.928;2023-02-22T00:56:17;52424.59;;;-145.69;100.00
1726;BME280;41776;48.260;8.928;2023-02-22T00:58:44;52438.44;;;-145.69;100.00
1726;BME280;41776;48.260;8.928;2023-02-22T01:01:12;52408.75;;;-145.69;100.00
1726;BME280;41776;48.260;8.928;2023-02-22T01:03:38;52428.53;;;-145.69;100.00
1726;BME280;41776;48.260;8.928;2023-02-22T01:06:05;52410.72;;;-145.69;100.00
1726;BME280;41776;48.260;8.928;2023-02-22T01:08:32;52377.06;;;-145.69;100.00
1726;BME280;41776;48.260;8.928;2023-02-22T01:10:58;52444.38;;;-145.69;100.00
1726;BME280;41776;48.260;8.928;2023-02-22T01:13:25;52432.50;;;-145.69;100.00
1726;BME280;41776;48.260;8.928;2023-02-22T01:15:51;52448.34;;;-145.69;100.00
1726;BME280;41776;48.260;8.928;2023-02-22T01:18:22;52416.66;;;-145.69;100.00
1726;BME280;41776;48.260;8.928;2023-02-22T01:20:50;52448.34;;;-145.69;100.00
1726;BME280;41776;48.260;8.928;2023-02-22T01:23:16;52430.53;;;-145.69;100.00
1726;BME280;41776;48.260;8.928;2023-02-22T01:25:43;52438.44;;;-145.69;100.00
1726;BME280;41776;48.260;8.928;2023-02-22T01:28:09;52444.38;;;-145.69;100.00
1726;BME280;41776;48.260;8.928;2023-02-22T01:30:37;52432.50;;;-145.69;100.00
1726;BME280;41776;48.260;8.928;2023-02-22T01:33:05;52414.69;;;-145.69;100.00
1726;BME280;41776;48.260;8.928;2023-02-22T01:35:36;52464.19;;;-145.69;100.00
1726;BME280;41776;48.260;8.928;2023-02-22T01:38:05;52460.22;;;-145.69;100.00
1726;BME280;41776;48.260;8.928;2023-02-22T01:40:34;52446.38;;;-145.69;100.00
1726;BME280;41776;48.260;8.928;2023-02-22T01:43:02;52420.63;;;-145.69;100.00
1726;BME280;41776;48.260;8.928;2023-02-22T01:45:47;52454.28;;;-145.69;100.00
1726;BME280;41776;48.260;8.928;2023-02-22T01:48:18;52400.81;;;-145.69;100.00
1726;BME280;41776;48.260;8.928;2023-02-22T01:50:51;52448.34;;;-145.69;100.00
1726;BME280;41776;48.260;8.928;2023-02-22T01:53:21;52440.44;;;-145.69;100.00
1726;BME280;41776;48.260;8.928;2023-02-22T01:55:49;52460.22;;;-145.69;100.00
1726;BME280;41776;48.260;8.928;2023-02-22T01:58:20;52394.88;;;-145.69;100.00
1726;BME280;41776;48.260;8.928;2023-02-22T02:00:48;52442.41;;;-145.69;100.00
1726;BME280;41776;48.260;8.928;2023-02-22T02:03:18;52412.69;;;-145.69;100.00
1726;BME280;41776;48.260;8.928;2023-02-22T02:05:48;52444.38;;;-145.69;100.00
1726;BME280;41776;48.260;8.928;2023-02-22T02:08:23;52396.84;;;-145.69;100.00
1726;BME280;41776;48.260;8.928;2023-02-22T02:10:54;52430.53;;;-145.69;100.00
1726;BME280;41776;48.260;8.928;2023-02-22T02:13:20;52428.53;;;-145.69;100.00
1726;BME280;41776;48.260;8.928;2023-02-22T02:15:47;52440.44;;;-145.69;100.00
1726;BME280;41776;48.260;8.928;2023-02-22T02:18:17;52426.56;;;-145.69;100.00
1726;BME280;41776;48.260;8.928;2023-02-22T02:20:53;52448.34;;;-145.69;100.00
1726;BME280;41776;48.260;8.928;2023-02-22T02:23:43;52420.63;;;-145.69;100.00
1726;BME280;41776;48.260;8.928;2023-02-22T02:29:46;52410.72;;;-145.69;100.00
1726;BME280;41776;48.260;8.928;2023-02-22T02:32:26;52430.53;;;-145.69;100.00
1726;BME280;41776;48.260;8.928;2023-02-22T02:34:57;52448.34;;;-145.69;100.00
1726;BME280;41776;48.260;8.928;2023-02-22T02:37:34;52432.50;;;-145.69;100.00
1726;BME280;41776;48.260;8.928;2023-02-22T02:40:11;52440.44;;;-145.69;100.00
1726;BME280;41776;48.260;8.928;2023-02-22T02:42:49;52420.63;;;-145.69;100.00
1726;BME280;41776;48.260;8.928;2023-02-22T02:45:20;52432.50;;;-145.69;100.00
1726;BME280;41776;48.260;8.928;2023-02-22T02:47:54;52448.34;;;-145.69;100.00
1726;BME280;41776;48.260;8.928;2023-02-22T02:50:26;52450.31;;;-145.69;100.00
1726;BME280;41776;48.260;8.928;2023-02-22T02:52:58;52424.59;;;-145.69;100.00
1726;BME280;41776;48.260;8.928;2023-02-22T02:55:27;52432.50;;;-145.69;100.00
1726;BME280;41776;48.260;8.928;2023-02-22T02:57:54;52450.31;;;-145.69;100.00
1726;BME280;41776;48.260;8.928;2023-02-22T03:00:25;52426.56;;;-145.69;100.00
1726;BME280;41776;48.260;8.928;2023-02-22T03:03:06;52432.50;;;-145.69;100.00
1726;BME280;41776;48.260;8.928;2023-02-22T03:05:46;52454.28;;;-145.69;100.00
1726;BME280;41776;48.260;8.928;2023-02-22T03:08:22;52436.47;;;-145.69;100.00
1726;BME280;41776;48.260;8.928;2023-02-22T03:10:58;52426.56;;;-145.69;100.00
1726;BME280;41776;48.260;8.928;2023-02-22T03:13:34;52474.09;;;-145.69;100.00
1726;BME280;41776;48.260;8.928;2023-02-22T03:16:13;52495.88;;;-145.69;100.00
1726;BME280;41776;48.260;8.928;2023-02-22T03:18:48;52446.38;;;-145.69;100.00
1726;BME280;41776;48.260;8.928;2023-02-22T03:21:23;52444.38;;;-145.69;100.00
1726;BME280;41776;48.260;8.928;2023-02-22T03:24:00;52448.34;;;-145.69;100.00
1726;BME280;41776;48.260;8.928;2023-02-22T03:26:34;52446.38;;;-145.69;100.00
1726;BME280;41776;48.260;8.928;2023-02-22T03:29:05;52462.22;;;-145.69;100.00
1726;BME280;41776;48.260;8.928;2023-02-22T03:31:37;52428.53;;;-145.69;100.00
1726;BME280;41776;48.260;8.928;2023-02-22T03:34:08;52424.59;;;-145.69;100.00
1726;BME280;41776;48.260;8.928;2023-02-22T03:36:40;52462.22;;;-145.69;100.00
1726;BME280;41776;48.260;8.928;2023-02-22T03:39:10;52424.59;;;-145.69;100.00
1726;BME280;41776;48.260;8.928;2023-02-22T03:41:42;52438.44;;;-145.69;100.00
1726;BME280;41776;48.260;8.928;2023-02-22T03:44:18;52482.00;;;-145.69;100.00
1726;BME280;41776;48.260;8.928;2023-02-22T03:46:47;52493.91;;;-145.69;100.00
1726;BME280;41776;48.260;8.928;2023-02-22T03:49:22;52484.00;;;-145.69;100.00
1726;BME280;41776;48.260;8.928;2023-02-22T03:51:50;52440.44;;;-145.69;100.00
1726;BME280;41776;48.260;8.928;2023-02-22T03:54:17;52440.44;;;-145.69;100.00
1726;BME280;41776;48.260;8.928;2023-02-22T03:56:49;52448.34;;;-145.69;100.00
1726;BME280;41776;48.260;8.928;2023-02-22T03:59:17;52452.31;;;-145.69;100.00
1726;BME280;41776;48.260;8.928;2023-02-22T04:01:48;52440.44;;;-145.69;100.00
1726;BME280;41776;48.260;8.928;2023-02-22T04:04:15;52452.31;;;-145.69;100.00
1726;BME280;41776;48.260;8.928;2023-02-22T04:06:43;52452.31;;;-145.69;100.00
1726;BME280;41776;48.260;8.928;2023-02-22T04:09:12;52472.13;;;-145.69;100.00
1726;BME280;41776;48.260;8.928;2023-02-22T04:11:38;52444.38;;;-145.69;100.00
1726;BME280;41776;48.260;8.928;2023-02-22T04:14:06;52440.44;;;-145.69;100.00
1726;BME280;41776;48.260;8.928;2023-02-22T04:16:33;52436.47;;;-145.69;100.00
1726;BME280;41776;48.260;8.928;2023-02-22T04:18:59;52416.66;;;-145.69;100.00
1726;BME280;41776;48.260;8.928;2023-02-22T04:21:26;52436.47;;;-145.69;100.00
1726;BME280;41776;48.260;8.928;2023-02-22T04:23:54;52468.16;;;-145.69;100.00
1726;BME280;41776;48.260;8.928;2023-02-22T04:26:21;52452.31;;;-145.69;100.00
1726;BME280;41776;48.260;8.928;2023-02-22T04:28:47;52456.28;;;-145.69;100.00
1726;BME280;41776;48.260;8.928;2023-02-22T04:31:14;52432.50;;;-145.69;100.00
1726;BME280;41776;48.260;8.928;2023-02-22T04:33:41;52444.38;;;-145.69;100.00
1726;BME280;41776;48.260;8.928;2023-02-22T04:36:08;52460.22;;;-145.69;100.00
1726;BME280;41776;48.260;8.928;2023-02-22T04:38:35;52424.59;;;-145.69;100.00
1726;BME280;41776;48.260;8.928;2023-02-22T04:41:03;52468.16;;;-145.69;100.00
1726;BME280;41776;48.260;8.928;2023-02-22T04:43:30;52491.91;;;-145.69;100.00
1726;BME280;41776;48.260;8.928;2023-02-22T04:45:56;52444.38;;;-145.69;100.00
1726;BME280;41776;48.260;8.928;2023-02-22T04:48:23;52436.47;;;-145.69;100.00
1726;BME280;41776;48.260;8.928;2023-02-22T04:50:49;52450.31;;;-145.69;100.00
1726;BME280;41776;48.260;8.928;2023-02-22T04:53:16;52452.31;;;-145.69;100.00
1726;BME280;41776;48.260;8.928;2023-02-22T04:55:43;52484.00;;;-145.69;100.00
1726;BME280;41776;48.260;8.928;2023-02-22T04:58:10;52438.44;;;-145.69;100.00
1726;BME280;41776;48.260;8.928;2023-02-22T05:00:37;52388.94;;;-145.69;100.00
1726;BME280;41776;48.260;8.928;2023-02-22T05:03:04;52430.53;;;-145.69;100.00
1726;BME280;41776;48.260;8.928;2023-02-22T05:05:30;52460.22;;;-145.69;100.00
1726;BME280;41776;48.260;8.928;2023-02-22T05:07:57;52446.38;;;-145.69;100.00
1726;BME280;41776;48.260;8.928;2023-02-22T05:10:24;52422.59;;;-145.69;100.00
1726;BME280;41776;48.260;8.928;2023-02-22T05:12:50;52442.41;;;-145.69;100.00
1726;BME280;41776;48.260;8.928;2023-02-22T05:15:19;52444.38;;;-145.69;100.00
1726;BME280;41776;48.260;8.928;2023-02-22T05:17:46;52472.13;;;-145.69;100.00
1726;BME280;41776;48.260;8.928;2023-02-22T05:20:24;52428.53;;;-145.69;100.00
1726;BME280;41776;48.260;8.928;2023-02-22T05:22:52;52456.28;;;-145.69;100.00
1726;BME280;41776;48.260;8.928;2023-02-22T05:25:18;52444.38;;;-145.69;100.00
1726;BME280;41776;48.260;8.928;2023-02-22T05:27:50;52420.63;;;-145.69;100.00
1726;BME280;41776;48.260;8.928;2023-02-22T05:30:20;52468.16;;;-145.69;100.00
1726;BME280;41776;48.260;8.928;2023-02-22T05:32:51;52444.38;;;-145.69;100.00
1726;BME280;41776;48.260;8.928;2023-02-22T05:35:18;52428.53;;;-145.69;100.00
1726;BME280;41776;48.260;8.928;2023-02-22T05:37:46;52428.53;;;-145.69;100.00
1726;BME280;41776;48.260;8.928;2023-02-22T05:40:16;52440.44;;;-145.69;100.00
1726;BME280;41776;48.260;8.928;2023-02-22T05:42:42;52456.28;;;-145.69;100.00
1726;BME280;41776;48.260;8.928;2023-02-22T05:45:11;52426.56;;;-145.69;100.00
1726;BME280;41776;48.260;8.928;2023-02-22T05:47:39;52440.44;;;-145.69;100.00
1726;BME280;41776;48.260;8.928;2023-02-22T05:50:07;52408.75;;;-145.69;100.00
1726;BME280;41776;48.260;8.928;2023-02-22T05:52:34;52440.44;;;-145.69;100.00
1726;BME280;41776;48.260;8.928;2023-02-22T05:55:00;52444.38;;;-145.69;100.00
1726;BME280;41776;48.260;8.928;2023-02-22T05:57:27;52448.34;;;-145.69;100.00
1726;BME280;41776;48.260;8.928;2023-02-22T05:59:53;52442.41;;;-145.69;100.00
1726;BME280;41776;48.260;8.928;2023-02-22T06:02:23;52406.75;;;-145.69;100.00
1726;BME280;41776;48.260;8.928;2023-02-22T06:04:51;52444.38;;;-145.69;100.00
1726;BME280;41776;48.260;8.928;2023-02-22T06:07:17;52440.44;;;-145.69;100.00
1726;BME280;41776;48.260;8.928;2023-02-22T06:09:47;52454.28;;;-145.69;100.00
1726;BME280;41776;48.260;8.928;2023-02-22T06:12:16;52484.00;;;-145.69;100.00
1726;BME280;41776;48.260;8.928;2023-02-22T06:14:45;52406.75;;;-145.69;100.00
1726;BME280;41776;48.260;8.928;2023-02-22T06:17:13;52484.00;;;-145.69;100.00
1726;BME280;41776;48.260;8.928;2023-02-22T06:19:40;52442.41;;;-145.69;100.00
1726;BME280;41776;48.260;8.928;2023-02-22T06:22:14;52452.31;;;-145.69;100.00
1726;BME280;41776;48.260;8.928;2023-02-22T06:24:41;52444.38;;;-145.69;100.00
1726;BME280;41776;48.260;8.928;2023-02-22T06:27:08;52420.63;;;-145.69;100.00
1726;BME280;41776;48.260;8.928;2023-02-22T06:29:34;52432.50;;;-145.69;100.00
1726;BME280;41776;48.260;8.928;2023-02-22T06:32:01;52450.31;;;-145.69;100.00
1726;BME280;41776;48.260;8.928;2023-02-22T06:34:27;52464.19;;;-145.69;100.00
1726;BME280;41776;48.260;8.928;2023-02-22T06:36:54;52472.13;;;-145.69;100.00
1726;BME280;41776;48.260;8.928;2023-02-22T06:39:21;52416.66;;;-145.69;100.00
1726;BME280;41776;48.260;8.928;2023-02-22T06:41:49;52428.53;;;-145.69;100.00
1726;BME280;41776;48.260;8.928;2023-02-22T06:44:16;52396.84;;;-145.69;100.00
1726;BME280;41776;48.260;8.928;2023-02-22T06:46:46;52420.63;;;-145.69;100.00
1726;BME280;41776;48.260;8.928;2023-02-22T06:49:13;52472.13;;;-145.69;100.00
1726;BME280;41776;48.260;8.928;2023-02-22T06:51:39;52428.53;;;-145.69;100.00
1726;BME280;41776;48.260;8.928;2023-02-22T06:54:06;52456.28;;;-145.69;100.00
1726;BME280;41776;48.260;8.928;2023-02-22T06:56:34;52394.88;;;-145.69;100.00
1726;BME280;41776;48.260;8.928;2023-02-22T06:59:00;52420.63;;;-145.69;100.00
1726;BME280;41776;48.260;8.928;2023-02-22T07:01:27;52456.28;;;-145.69;100.00
1726;BME280;41776;48.260;8.928;2023-02-22T07:03:53;52408.75;;;-145.69;100.00
1726;BME280;41776;48.260;8.928;2023-02-22T07:06:20;52430.53;;;-145.69;100.00
1726;BME280;41776;48.260;8.928;2023-02-22T07:08:47;52440.44;;;-145.69;100.00
1726;BME280;41776;48.260;8.928;2023-02-22T07:11:14;52430.53;;;-145.69;100.00
1726;BME280;41776;48.260;8.928;2023-02-22T07:13:42;52396.84;;;-145.69;100.00
1726;BME280;41776;48.260;8.928;2023-02-22T07:16:08;52402.78;;;-145.69;100.00
1726;BME280;41776;48.260;8.928;2023-02-22T07:18:35;52416.66;;;-145.69;100.00
1726;BME280;41776;48.260;8.928;2023-02-22T07:21:03;52400.81;;;-145.69;100.00
1726;BME280;41776;48.260;8.928;2023-02-22T07:23:29;52444.38;;;-145.69;100.00
1726;BME280;41776;48.260;8.928;2023-02-22T07:26:00;52416.66;;;-145.69;100.00
1726;BME280;41776;48.260;8.928;2023-02-22T07:28:26;52434.47;;;-145.69;100.00
1726;BME280;41776;48.260;8.928;2023-02-22T07:30:56;52432.50;;;-145.69;100.00
1726;BME280;41776;48.260;8.928;2023-02-22T07:33:23;52414.69;;;-145.69;100.00
1726;BME280;41776;48.260;8.928;2023-02-22T07:35:50;52379.03;;;-145.69;100.00
1726;BME280;41776;48.260;8.928;2023-02-22T07:38:18;52440.44;;;-145.69;100.00
1726;BME280;41776;48.260;8.928;2023-02-22T07:40:45;52416.66;;;-145.69;100.00
1726;BME280;41776;48.260;8.928;2023-02-22T07:43:18;52434.47;;;-145.69;100.00
1726;BME280;41776;48.260;8.928;2023-02-22T07:45:46;52424.59;;;-145.69;100.00
1726;BME280;41776;48.260;8.928;2023-02-22T07:48:15;52470.13;;;-145.69;100.00
1726;BME280;41776;48.260;8.928;2023-02-22T07:50:42;52440.44;;;-145.69;100.00
1726;BME280;41776;48.260;8.928;2023-02-22T07:53:13;52420.63;;;-145.69;100.00
1726;BME280;41776;48.260;8.928;2023-02-22T07:55:40;52392.91;;;-145.69;100.00
1726;BME280;41776;48.260;8.928;2023-02-22T07:58:08;52390.91;;;-145.69;100.00
1726;BME280;41776;48.260;8.928;2023-02-22T08:00:36;52381.00;;;-145.69;100.00
1726;BME280;41776;48.260;8.928;2023-02-22T08:03:05;52402.78;;;-145.69;100.00
1726;BME280;41776;48.260;8.928;2023-02-22T08:05:34;52384.97;;;-145.69;100.00
1726;BME280;41776;48.260;8.928;2023-02-22T08:08:01;52406.75;;;-145.69;100.00
1726;BME280;41776;48.260;8.928;2023-02-22T08:10:28;52414.69;;;-145.69;100.00
1726;BME280;41776;48.260;8.928;2023-02-22T08:12:55;52388.94;;;-145.69;100.00
1726;BME280;41776;48.260;8.928;2023-02-22T08:15:24;52388.94;;;-145.69;100.00
1726;BME280;41776;48.260;8.928;2023-02-22T08:17:51;52400.81;;;-145.69;100.00
1726;BME280;41776;48.260;8.928;2023-02-22T08:20:19;52400.81;;;-145.69;100.00
1726;BME280;41776;48.260;8.928;2023-02-22T08:22:48;52392.91;;;-145.69;100.00
1726;BME280;41776;48.260;8.928;2023-02-22T08:25:17;52388.94;;;-145.69;100.00
1726;BME280;41776;48.260;8.928;2023-02-22T08:27:44;52390.91;;;-145.69;100.00
1726;BME280;41776;48.260;8.928;2023-02-22T08:30:13;52396.84;;;-145.69;100.00
1726;BME280;41776;48.260;8.928;2023-02-22T08:32:40;52361.22;;;-145.69;100.00
1726;BME280;41776;48.260;8.928;2023-02-22T08:35:07;52377.06;;;-145.69;100.00
1726;BME280;41776;48.260;8.928;2023-02-22T08:37:34;52371.13;;;-145.69;100.00
1726;BME280;41776;48.260;8.928;2023-02-22T08:40:02;52404.78;;;-145.69;100.00
1726;BME280;41776;48.260;8.928;2023-02-22T08:42:28;52369.13;;;-145.69;100.00
1726;BME280;41776;48.260;8.928;2023-02-22T08:44:55;52392.91;;;-145.69;100.00
1726;BME280;41776;48.260;8.928;2023-02-22T08:47:21;52339.44;;;-145.69;100.00
1726;BME280;41776;48.260;8.928;2023-02-22T08:49:48;52345.38;;;-145.69;100.00
1726;BME280;41776;48.260;8.928;2023-02-22T08:52:14;52365.16;;;-145.69;100.00
1726;BME280;41776;48.260;8.928;2023-02-22T08:54:41;52343.38;;;-145.69;100.00
1726;BME280;41776;48.260;8.928;2023-02-22T08:57:08;52357.25;;;-145.69;100.00
1726;BME280;41776;48.260;8.928;2023-02-22T08:59:35;52377.06;;;-145.69;100.00
1726;BME280;41776;48.260;8.928;2023-02-22T09:02:01;52394.88;;;-145.69;100.00
1726;BME280;41776;48.260;8.928;2023-02-22T09:04:28;52363.19;;;-145.69;100.00
1726;BME280;41776;48.260;8.928;2023-02-22T09:06:54;52365.16;;;-145.69;98.74
1726;BME280;41776;48.260;8.928;2023-02-22T09:09:21;52371.13;;;-145.69;98.52
1726;BME280;41776;48.260;8.928;2023-02-22T09:11:48;52359.22;;;-145.69;96.56
1726;BME280;41776;48.260;8.928;2023-02-22T09:14:15;52381.00;;;-145.69;96.55
1726;BME280;41776;48.260;8.928;2023-02-22T09:16:42;52347.34;;;-145.69;100.00
1726;BME280;41776;48.260;8.928;2023-02-22T09:19:09;52386.97;;;-145.69;100.00
1726;BME280;41776;48.260;8.928;2023-02-22T09:21:35;52388.94;;;-145.69;98.72
1726;BME280;41776;48.260;8.928;2023-02-22T09:24:02;52349.31;;;-145.69;98.92
1726;BME280;41776;48.260;8.928;2023-02-22T09:26:32;52331.50;;;-145.69;98.68
1726;BME280;41776;48.260;8.928;2023-02-22T09:28:59;52353.28;;;-145.69;95.39
1726;BME280;41776;48.260;8.928;2023-02-22T09:31:27;52323.59;;;-145.69;92.41
1726;BME280;41776;48.260;8.928;2023-02-22T09:33:53;52301.81;;;-145.69;90.04
1726;BME280;41776;48.260;8.928;2023-02-22T09:36:22;52349.31;;;-145.69;90.35
1726;BME280;41776;48.260;8.928;2023-02-22T09:38:49;52325.56;;;-145.69;92.58
1726;BME280;41776;48.260;8.928;2023-02-22T09:41:19;52381.00;;;-145.69;95.73
1726;BME280;41776;48.260;8.928;2023-02-22T09:44:07;52357.25;;;-145.69;94.64
1726;BME280;41776;48.260;8.928;2023-02-22T09:46:41;52321.59;;;-145.69;90.89
1726;BME280;41776;48.260;8.928;2023-02-22T09:49:19;52349.31;;;-145.69;88.88
1726;BME280;41776;48.260;8.928;2023-02-22T09:51:49;52317.66;;;-145.69;90.84
1726;BME280;41776;48.260;8.928;2023-02-22T09:54:20;52309.72;;;-145.69;81.05
1726;BME280;41776;48.260;8.928;2023-02-22T09:56:51;52307.75;;;-145.69;74.07
1726;BME280;41776;48.260;8.928;2023-02-22T09:59:23;52293.88;;;-145.69;67.55
1726;BME280;41776;48.260;8.928;2023-02-22T10:01:58;52297.84;;;-145.69;64.62
1726;BME280;41776;48.260;8.928;2023-02-22T10:04:38;52321.59;;;-145.69;68.32
1726;BME280;41776;48.260;8.928;2023-02-22T10:07:15;52317.66;;;-145.69;68.13
1726;BME280;41776;48.260;8.928;2023-02-22T10:09:44;52309.72;;;-145.69;64.44
1726;BME280;41776;48.260;8.928;2023-02-22T10:12:17;52289.91;;;-145.69;55.35
1726;BME280;41776;48.260;8.928;2023-02-22T10:18:25;52309.72;;;-145.69;55.71
1726;BME280;41776;48.260;8.928;2023-02-22T10:21:01;52293.88;;;-145.69;60.24
1726;BME280;41776;48.260;8.928;2023-02-22T10:23:35;52301.81;;;-145.69;56.85
1726;BME280;41776;48.260;8.928;2023-02-22T10:26:13;52297.84;;;-145.69;57.66
1726;BME280;41776;48.260;8.928;2023-02-22T10:28:43;52299.81;;;-145.69;60.72
1726;BME280;41776;48.260;8.928;2023-02-22T10:31:19;52260.22;;;-145.69;66.09
1726;BME280;41776;48.260;8.928;2023-02-22T10:33:53;52293.88;;;-145.69;62.06
1726;BME280;41776;48.260;8.928;2023-02-22T10:36:21;52280.00;;;-145.69;65.43
1726;BME280;41776;48.260;8.928;2023-02-22T10:38:53;52297.84;;;-145.69;64.55
1726;BME280;41776;48.260;8.928;2023-02-22T10:41:27;52295.84;;;-145.69;68.87
1726;BME280;41776;48.260;8.928;2023-02-22T10:43:54;52285.97;;;-145.69;63.17
1726;BME280;41776;48.260;8.928;2023-02-22T10:46:21;52274.06;;;-145.69;63.95
1726;BME280;41776;48.260;8.928;2023-02-22T10:48:53;52282.00;;;-145.69;66.87
1726;BME280;41776;48.260;8.928;2023-02-22T10:51:21;52291.91;;;-145.69;56.51
1726;BME280;41776;48.260;8.928;2023-02-22T10:54:17;52278.03;;;-145.69;57.30
1726;BME280;41776;48.260;8.928;2023-02-22T10:56:50;52285.97;;;-145.69;62.67
1726;BME280;41776;48.260;8.928;2023-02-22T10:59:30;52329.53;;;-145.69;59.04
1726;BME280;41776;48.260;8.928;2023-02-22T11:01:58;52285.97;;;-145.69;52.43
1726;BME280;41776;48.260;8.928;2023-02-22T11:04:26;52321.59;;;-145.69;55.19
1726;BME280;41776;48.260;8.928;2023-02-22T11:07:08;52323.59;;;-145.69;49.47
1726;BME280;41776;48.260;8.928;2023-02-22T11:09:45;52270.13;;;-145.69;48.94
1726;BME280;41776;48.260;8.928;2023-02-22T11:12:17;52280.00;;;-145.69;46.42
1726;BME280;41776;48.260;8.928;2023-02-22T11:14:44;52274.06;;;-145.69;44.68
1726;BME280;41776;48.260;8.928;2023-02-22T11:17:15;52285.97;;;-145.69;43.89
1726;BME280;41776;48.260;8.928;2023-02-22T11:19:48;52258.22;;;-145.69;43.56
1726;BME280;41776;48.260;8.928;2023-02-22T11:22:20;52266.16;;;-145.69;44.03
1726;BME280;41776;48.260;8.928;2023-02-22T11:24:49;52301.81;;;-145.69;44.87
1726;BME280;41776;48.260;8.928;2023-02-22T11:27:25;52274.06;;;-145.69;43.94
1726;BME280;41776;48.260;8.928;2023-02-22T11:30:09;52258.22;;;-145.69;41.90
1726;BME280;41776;48.260;8.928;2023-02-22T11:32:42;52278.03;;;-145.69;41.42
1726;BME280;41776;48.260;8.928;2023-02-22T11:35:30;52250.31;;;-145.69;42.47
1726;BME280;41776;48.260;8.928;2023-02-22T11:38:09;52238.44;;;-145.69;42.77
1726;BME280;41776;48.260;8.928;2023-02-22T11:40:36;52260.22;;;-145.69;42.99
1726;BME280;41776;48.260;8.928;2023-02-22T11:43:11;52222.59;;;-145.69;41.36
1726;BME280;41776;48.260;8.928;2023-02-22T11:45:55;52282.00;;;-145.69;41.67
1726;BME280;41776;48.260;8.928;2023-02-22T11:48:26;52226.53;;;-145.69;40.70
1726;BME280;41776;48.260;8.928;2023-02-22T11:51:05;52270.13;;;-145.69;40.69
1726;BME280;41776;48.260;8.928;2023-02-22T11:53:45;52274.06;;;-145.69;37.44
1726;BME280;41776;48.260;8.928;2023-02-22T11:56:18;52278.03;;;-145.69;38.31
1726;BME280;41776;48.260;8.928;2023-02-22T11:58:49;52264.16;;;-145.69;38.75
1726;BME280;41776;48.260;8.928;2023-02-22T12:01:27;52278.03;;;-145.69;38.96
1726;BME280;41776;48.260;8.928;2023-02-22T12:04:21;52242.38;;;-145.69;39.60
1726;BME280;41776;48.260;8.928;2023-02-22T12:07:02;52278.03;;;-145.69;39.80
1726;BME280;41776;48.260;8.928;2023-02-22T12:09:39;52264.16;;;-145.69;40.95
1726;BME280;41776;48.260;8.928;2023-02-22T12:12:16;52282.00;;;-145.69;39.63
1726;BME280;41776;48.260;8.928;2023-02-22T12:14:51;52230.50;;;-145.69;41.59
1726;BME280;41776;48.260;8.928;2023-02-22T12:17:31;52234.47;;;-145.69;40.84
1726;BME280;41776;48.260;8.928;2023-02-22T12:20:05;52240.41;;;-145.69;40.26
1726;BME280;41776;48.260;8.928;2023-02-22T12:22:40;52274.06;;;-145.69;40.58
1726;BME280;41776;48.260;8.928;2023-02-22T12:25:17;52242.38;;;-145.69;41.61
1726;BME280;41776;48.260;8.928;2023-02-22T12:27:46;52252.28;;;-145.69;41.95
1726;BME280;41776;48.260;8.928;2023-02-22T12:30:17;52266.16;;;-145.69;42.10
1726;BME280;41776;48.260;8.928;2023-02-22T12:32:50;52270.13;;;-145.69;43.34
1726;BME280;41776;48.260;8.928;2023-02-22T12:35:20;52248.34;;;-145.69;43.16
1726;BME280;41776;48.260;8.928;2023-02-22T12:37:58;52254.28;;;-145.69;44.34
1726;BME280;41776;48.260;8.928;2023-02-22T12:40:32;52258.22;;;-145.69;44.79
1726;BME280;41776;48.260;8.928;2023-02-22T12:43:05;52274.06;;;-145.69;44.13
1726;BME280;41776;48.260;8.928;2023-02-22T12:45:38;52238.44;;;-145.69;43.90
1726;BME280;41776;48.260;8.928;2023-02-22T12:48:19;52236.44;;;-145.69;43.16
1726;BME280;41776;48.260;8.928;2023-02-22T12:50:52;52238.44;;;-145.69;43.17
1726;BME280;41776;48.260;8.928;2023-02-22T12:53:25;52248.34;;;-145.69;43.57
1726;BME280;41776;48.260;8.928;2023-02-22T12:55:57;52266.16;;;-145.69;42.79
1726;BME280;41776;48.260;8.928;2023-02-22T12:58:28;52262.19;;;-145.69;42.23
1726;BME280;41776;48.260;8.928;2023-02-22T13:00:59;52254.28;;;-145.69;43.01
1726;BME280;41776;48.260;8.928;2023-02-22T13:03:33;52256.25;;;-145.69;42.80
1726;BME280;41776;48.260;8.928;2023-02-22T13:06:21;52264.16;;;-145.69;43.05